Kamikawa Maru — JG5687 — position and weather

sailwx.info

Track history (hours):
 
Tides and Currents Weather Stations Pressure Air Temp Water Temp Dewpoint Dewpoint Depression Visibility Wind Speed Wind Dir Waves Ship Positions

Kamikawa Maru

Last reported at 2014-Oct-20 11:33 UTC. Time now 2014-Oct-24 11:25 UTC.
Position N 35°05' E 139°39'.

Length 162 m; draft 6.8 m.

Type: Cargo ship. MMSI: 431101012.

Date/timePositionNaut miles runAvg speedWind from/ knotsBaromVisibWave heightAir tempDewpointWater temp
2014-Oct-20 11:33N 35°05' E 139°39'1413.8
2014-Oct-20 10:33N 35°18' E 139°44'1313.1
2014-Oct-20 09:33N 35°30' E 139°51'9 4.5
2014-Oct-20 07:32N 35°38' E 139°46'0 0.0
2014-Oct-19 23:08N 35°38' E 139°46'0 0.1
2014-Oct-19 22:26N 35°38' E 139°46'6 6.6
2014-Oct-19 21:33N 35°33' E 139°50'1413.6
2014-Oct-19 20:34N 35°21' E 139°45'1312.7
2014-Oct-19 19:33N 35°08' E 139°47'  
2014-Oct-14 13:06N 34°58' E 139°30'1019.3
2014-Oct-14 12:33N 35°05' E 139°40'1313.1
2014-Oct-14 11:33N 35°18' E 139°44'6 5.5
2014-Oct-14 10:30N 35°23' E 139°45'0 0.0
2014-Oct-14 09:32N 35°23' E 139°45'0 0.0
2014-Oct-14 08:31N 35°23' E 139°45'0 0.0
2014-Oct-14 07:31N 35°23' E 139°45'0 0.0
2014-Oct-14 06:30N 35°23' E 139°45'0 0.1
2014-Oct-14 05:33N 35°23' E 139°45'0 0.0
2014-Oct-14 04:33N 35°23' E 139°45'0 0.0
2014-Oct-14 03:33N 35°23' E 139°45'0 0.0
2014-Oct-14 02:33N 35°23' E 139°45'0 0.0
2014-Oct-14 01:33N 35°23' E 139°45'0 0.0
2014-Oct-14 00:33N 35°23' E 139°45'1 0.3
2014-Oct-13 20:32N 35°22' E 139°45'5 4.5
2014-Oct-13 19:32N 35°27' E 139°47'6 5.7
2014-Oct-13 18:34N 35°23' E 139°42'2 2.2
2014-Oct-13 17:33N 35°22' E 139°45'7 6.3
2014-Oct-13 16:30N 35°27' E 139°49'5 0.2
2014-Oct-12 20:31N 35°31' E 139°52'0 0.0
2014-Oct-12 19:31N 35°31' E 139°52'0 0.0
2014-Oct-12 18:31N 35°31' E 139°52'0 0.0
2014-Oct-12 17:31N 35°31' E 139°52'0 0.0
2014-Oct-12 16:31N 35°31' E 139°52'0 0.0
2014-Oct-12 15:31N 35°31' E 139°52'0 0.0
2014-Oct-12 14:31N 35°31' E 139°52'0 0.0
2014-Oct-12 13:26N 35°31' E 139°52'1011.1
2014-Oct-12 12:33N 35°23' E 139°46'1211.8
2014-Oct-12 11:33N 35°11' E 139°46'  
Track history (hours):
 
Tides and Currents Weather Stations Pressure Air Temp Water Temp Dewpoint Dewpoint Depression Visibility Wind Speed Wind Dir Waves Ship Positions

Kamikawa Maru

Last reported at 2014-Oct-20 11:33 UTC. Time now 2014-Oct-24 11:25 UTC.
Position N 35°05' E 139°39'.

Length 162 m; draft 6.8 m.

Type: Cargo ship. MMSI: 431101012.

Date/timePositionNaut miles runAvg speedWind from/ knotsBaromVisibWave heightAir tempDewpointWater temp
2014-Oct-20 11:33N 35°05' E 139°39'1413.8
2014-Oct-20 10:33N 35°18' E 139°44'1313.1
2014-Oct-20 09:33N 35°30' E 139°51'9 4.5
2014-Oct-20 07:32N 35°38' E 139°46'0 0.0
2014-Oct-19 23:08N 35°38' E 139°46'0 0.1
2014-Oct-19 22:26N 35°38' E 139°46'6 6.6
2014-Oct-19 21:33N 35°33' E 139°50'1413.6
2014-Oct-19 20:34N 35°21' E 139°45'1312.7
2014-Oct-19 19:33N 35°08' E 139°47'  
2014-Oct-14 13:06N 34°58' E 139°30'1019.3
2014-Oct-14 12:33N 35°05' E 139°40'1313.1
2014-Oct-14 11:33N 35°18' E 139°44'6 5.5
2014-Oct-14 10:30N 35°23' E 139°45'0 0.0
2014-Oct-14 09:32N 35°23' E 139°45'0 0.0
2014-Oct-14 08:31N 35°23' E 139°45'0 0.0
2014-Oct-14 07:31N 35°23' E 139°45'0 0.0
2014-Oct-14 06:30N 35°23' E 139°45'0 0.1
2014-Oct-14 05:33N 35°23' E 139°45'0 0.0
2014-Oct-14 04:33N 35°23' E 139°45'0 0.0
2014-Oct-14 03:33N 35°23' E 139°45'0 0.0
2014-Oct-14 02:33N 35°23' E 139°45'0 0.0
2014-Oct-14 01:33N 35°23' E 139°45'0 0.0
2014-Oct-14 00:33N 35°23' E 139°45'1 0.3
2014-Oct-13 20:32N 35°22' E 139°45'5 4.5
2014-Oct-13 19:32N 35°27' E 139°47'6 5.7
2014-Oct-13 18:34N 35°23' E 139°42'2 2.2
2014-Oct-13 17:33N 35°22' E 139°45'7 6.3
2014-Oct-13 16:30N 35°27' E 139°49'5 0.2
2014-Oct-12 20:31N 35°31' E 139°52'0 0.0
2014-Oct-12 19:31N 35°31' E 139°52'0 0.0
2014-Oct-12 18:31N 35°31' E 139°52'0 0.0
2014-Oct-12 17:31N 35°31' E 139°52'0 0.0
2014-Oct-12 16:31N 35°31' E 139°52'0 0.0
2014-Oct-12 15:31N 35°31' E 139°52'0 0.0
2014-Oct-12 14:31N 35°31' E 139°52'0 0.0
2014-Oct-12 13:26N 35°31' E 139°52'1011.1
2014-Oct-12 12:33N 35°23' E 139°46'1211.8
2014-Oct-12 11:33N 35°11' E 139°46'  

Dump ship's entire track history